Time;durP1;ratioP1;P1;durP2;ratioP2;P2;SDS_P1;SDS_P2;PMS_P1;PMS_P2;Temp;Humidity;BMP_temperature;BMP_pressure;BME280_temperature;BME280_humidity;BME280_pressure;Samples;Min_cycle;Max_cycle;Signal;HPM_P1;HPM_P2
2022/10/06 00:00:01;;;;;;;61.17;3.83;;;;;;;;;;5050830;28;20956;-70
2022/10/06 00:02:29;;;;;;;59.87;3.93;;;;;;;;;;5050384;28;20448;-70
2022/10/06 00:04:56;;;;;;;58.60;3.20;;;;;;;;;;5050714;28;21001;-70
2022/10/06 00:07:23;;;;;;;59.63;4.10;;;;;;;;;;5051192;28;20454;-70
2022/10/06 00:09:50;;;;;;;59.00;3.70;;;;;;;;;;5050608;28;20452;-70
2022/10/06 00:12:18;;;;;;;59.10;3.70;;;;;;;;;;5052722;28;20805;-70
2022/10/06 00:14:45;;;;;;;59.40;3.57;;;;;;;;;;5053831;28;20837;-70
2022/10/06 00:17:12;;;;;;;59.73;3.10;;;;;;;;;;5054499;28;20448;-70
2022/10/06 00:19:41;;;;;;;60.90;4.37;;;;;;;;;;5054084;28;20963;-70
2022/10/06 00:22:08;;;;;;;61.37;4.27;;;;;;;;;;5054537;28;20460;-70
2022/10/06 00:24:35;;;;;;;59.30;3.83;;;;;;;;;;5054290;28;20841;-70
2022/10/06 00:27:02;;;;;;;58.80;3.40;;;;;;;;;;5053760;28;20444;-70
2022/10/06 00:29:29;;;;;;;59.10;3.30;;;;;;;;;;5053938;28;20462;-70
2022/10/06 00:31:56;;;;;;;59.90;4.80;;;;;;;;;;5054172;28;20483;-70
2022/10/06 00:34:24;;;;;;;58.77;3.57;;;;;;;;;;5054059;28;20457;-68
2022/10/06 00:36:52;;;;;;;59.57;3.17;;;;;;;;;;5053708;28;20518;-68
2022/10/06 00:39:19;;;;;;;58.97;3.40;;;;;;;;;;5053710;28;20455;-66
2022/10/06 00:41:46;;;;;;;59.20;3.57;;;;;;;;;;5054125;28;20544;-68
2022/10/06 00:44:14;;;;;;;58.37;2.93;;;;;;;;;;5053936;28;20459;-68
2022/10/06 00:46:43;;;;;;;60.40;3.40;;;;;;;;;;5053935;28;20478;-68
2022/10/06 00:49:14;;;;;;;60.00;3.00;;;;;;;;;;5052899;28;20543;-68
2022/10/06 00:51:43;;;;;;;58.67;3.17;;;;;;;;;;5053966;28;20455;-68
2022/10/06 00:54:13;;;;;;;59.27;3.20;;;;;;;;;;5053959;28;20452;-68
2022/10/06 00:56:40;;;;;;;59.57;3.60;;;;;;;;;;5053767;28;20474;-68
2022/10/06 00:59:09;;;;;;;59.27;3.30;;;;;;;;;;5053157;28;20456;-70
2022/10/06 01:01:37;;;;;;;59.03;2.93;;;;;;;;;;5053340;28;20458;-70
2022/10/06 01:04:06;;;;;;;58.60;3.17;;;;;;;;;;5053540;28;20464;-70
2022/10/06 01:06:41;;;;;;;59.07;3.00;;;;;;;;;;5053699;28;20822;-70
2022/10/06 01:09:08;;;;;;;58.63;3.40;;;;;;;;;;5053335;28;20543;-70
2022/10/06 01:11:37;;;;;;;59.07;3.60;;;;;;;;;;5052986;28;20482;-70
2022/10/06 01:14:05;;;;;;;59.13;3.70;;;;;;;;;;5053462;28;20998;-70
2022/10/06 01:16:36;;;;;;;59.07;3.33;;;;;;;;;;5053583;28;20478;-70
2022/10/06 01:19:05;;;;;;;59.17;3.20;;;;;;;;;;5053229;28;20487;-70
2022/10/06 01:21:35;;;;;;;60.23;4.97;;;;;;;;;;5053413;28;20444;-70
2022/10/06 01:24:04;;;;;;;58.50;3.40;;;;;;;;;;5051728;28;20972;-70
2022/10/06 01:26:32;;;;;;;58.67;3.10;;;;;;;;;;5053295;28;20495;-70
2022/10/06 01:28:59;;;;;;;59.20;3.70;;;;;;;;;;5053056;28;20448;-70
2022/10/06 01:31:27;;;;;;;59.50;3.73;;;;;;;;;;5053266;28;20553;-70
2022/10/06 01:33:54;;;;;;;59.07;3.20;;;;;;;;;;5052661;28;20460;-70
2022/10/06 01:36:22;;;;;;;59.60;3.23;;;;;;;;;;5053005;28;20555;-70
2022/10/06 01:38:49;;;;;;;59.30;3.63;;;;;;;;;;5052958;28;20447;-70
2022/10/06 01:41:18;;;;;;;58.47;2.90;;;;;;;;;;5053227;28;20452;-70
2022/10/06 01:43:45;;;;;;;59.73;3.30;;;;;;;;;;5051385;28;20456;-70
2022/10/06 01:46:12;;;;;;;59.30;3.40;;;;;;;;;;5051776;28;20488;-70
2022/10/06 01:48:39;;;;;;;59.80;3.63;;;;;;;;;;5052569;28;20551;-70
2022/10/06 01:51:08;;;;;;;58.30;3.20;;;;;;;;;;5053020;28;20452;-70
2022/10/06 01:53:35;;;;;;;58.60;3.20;;;;;;;;;;5052792;28;20448;-70
2022/10/06 01:56:02;;;;;;;58.50;2.80;;;;;;;;;;5052757;28;20478;-70
2022/10/06 01:58:30;;;;;;;59.37;3.40;;;;;;;;;;5051513;28;20465;-70
2022/10/06 02:00:57;;;;;;;59.57;3.60;;;;;;;;;;5052427;28;20462;-70
2022/10/06 02:03:25;;;;;;;58.80;3.20;;;;;;;;;;5052707;28;20452;-70
2022/10/06 02:05:52;;;;;;;59.27;3.27;;;;;;;;;;5052558;28;21022;-70
2022/10/06 02:08:19;;;;;;;59.30;3.03;;;;;;;;;;5052256;28;20450;-70
2022/10/06 02:10:46;;;;;;;58.57;3.23;;;;;;;;;;5051865;28;20459;-70
2022/10/06 02:13:13;;;;;;;59.87;3.53;;;;;;;;;;5052334;28;20827;-70
2022/10/06 02:15:41;;;;;;;58.60;3.37;;;;;;;;;;5052514;28;20464;-70
2022/10/06 02:18:09;;;;;;;60.40;3.20;;;;;;;;;;5052169;28;20459;-70
2022/10/06 02:20:36;;;;;;;58.83;3.33;;;;;;;;;;5051114;28;20916;-70
2022/10/06 02:23:03;;;;;;;60.27;3.83;;;;;;;;;;5052289;28;20444;-70
2022/10/06 02:25:30;;;;;;;58.60;3.27;;;;;;;;;;5052051;28;20861;-70
2022/10/06 02:27:57;;;;;;;61.30;3.43;;;;;;;;;;5051995;28;20563;-70
2022/10/06 02:30:25;;;;;;;59.00;3.60;;;;;;;;;;5052030;28;20451;-70
2022/10/06 02:32:54;;;;;;;58.60;3.53;;;;;;;;;;5051376;28;20452;-68
2022/10/06 02:35:21;;;;;;;61.17;4.37;;;;;;;;;;5051788;28;21003;-68
2022/10/06 02:37:48;;;;;;;58.43;2.80;;;;;;;;;;5052044;28;20932;-68
2022/10/06 02:40:16;;;;;;;61.17;3.37;;;;;;;;;;5051562;28;20543;-68
2022/10/06 02:42:44;;;;;;;58.40;3.73;;;;;;;;;;5051724;28;20463;-68
2022/10/06 02:45:12;;;;;;;59.17;4.00;;;;;;;;;;5051369;28;20541;-68
2022/10/06 02:47:39;;;;;;;59.23;3.40;;;;;;;;;;5051821;28;20448;-68
2022/10/06 02:50:08;;;;;;;59.20;3.57;;;;;;;;;;5051547;28;20448;-68
2022/10/06 02:52:36;;;;;;;59.77;4.13;;;;;;;;;;5051837;28;20806;-68
2022/10/06 02:55:04;;;;;;;60.33;3.80;;;;;;;;;;5050939;28;20476;-68
2022/10/06 02:57:31;;;;;;;59.10;3.27;;;;;;;;;;5051862;28;20460;-68
2022/10/06 02:59:58;;;;;;;58.40;2.70;;;;;;;;;;5051354;28;20447;-68
2022/10/06 03:02:25;;;;;;;58.47;3.10;;;;;;;;;;5051712;28;20452;-68
2022/10/06 03:04:52;;;;;;;58.40;3.10;;;;;;;;;;5051557;28;20868;-68
2022/10/06 03:07:21;;;;;;;59.63;3.97;;;;;;;;;;5050775;28;20455;-68
2022/10/06 03:09:48;;;;;;;59.00;3.53;;;;;;;;;;5051214;28;20448;-68
2022/10/06 03:12:15;;;;;;;58.07;3.17;;;;;;;;;;5051817;28;20452;-68
2022/10/06 03:14:42;;;;;;;60.10;4.30;;;;;;;;;;5051346;28;20455;-68
2022/10/06 03:17:09;;;;;;;58.90;3.27;;;;;;;;;;5051388;28;20448;-68
2022/10/06 03:19:37;;;;;;;68.30;3.77;;;;;;;;;;5050550;28;20460;-68
2022/10/06 03:22:04;;;;;;;61.27;3.77;;;;;;;;;;5051321;28;20456;-68
2022/10/06 03:24:33;;;;;;;58.50;3.03;;;;;;;;;;5051569;28;20452;-68
2022/10/06 03:27:00;;;;;;;58.47;3.17;;;;;;;;;;5051735;28;20888;-68
2022/10/06 03:29:29;;;;;;;59.27;3.33;;;;;;;;;;5050551;28;20448;-68
2022/10/06 03:31:56;;;;;;;58.77;3.57;;;;;;;;;;5051270;28;20543;-68
2022/10/06 03:34:24;;;;;;;59.40;3.77;;;;;;;;;;5051089;28;20461;-67
2022/10/06 03:36:51;;;;;;;58.17;2.90;;;;;;;;;;5051251;28;20444;-70
2022/10/06 03:39:18;;;;;;;60.27;4.50;;;;;;;;;;5051150;28;20448;-70
2022/10/06 03:41:46;;;;;;;59.87;3.40;;;;;;;;;;5050571;28;20462;-70
2022/10/06 03:44:13;;;;;;;59.67;3.60;;;;;;;;;;5051221;28;20491;-70
2022/10/06 03:46:41;;;;;;;58.63;3.30;;;;;;;;;;5051943;28;20891;-70
2022/10/06 03:49:08;;;;;;;60.03;3.50;;;;;;;;;;5054767;28;20539;-70
2022/10/06 03:51:36;;;;;;;58.60;3.10;;;;;;;;;;5055098;28;20456;-70
2022/10/06 03:54:04;;;;;;;59.00;3.00;;;;;;;;;;5054389;28;20452;-70
2022/10/06 03:56:32;;;;;;;60.30;3.60;;;;;;;;;;5055052;28;20844;-70
2022/10/06 03:59:01;;;;;;;58.10;2.90;;;;;;;;;;5054648;28;20456;-70
2022/10/06 04:01:29;;;;;;;58.60;3.10;;;;;;;;;;5054823;28;20448;-70
2022/10/06 04:03:57;;;;;;;59.07;3.67;;;;;;;;;;5054411;28;20448;-70
2022/10/06 04:06:24;;;;;;;58.80;3.30;;;;;;;;;;5054791;28;20832;-70
2022/10/06 04:08:52;;;;;;;61.43;3.93;;;;;;;;;;5054388;28;20975;-70
2022/10/06 04:11:20;;;;;;;59.17;3.53;;;;;;;;;;5054778;28;20471;-70
2022/10/06 04:13:48;;;;;;;59.53;3.20;;;;;;;;;;5054693;28;20916;-70
2022/10/06 04:16:17;;;;;;;59.30;3.70;;;;;;;;;;5053481;28;20471;-70
2022/10/06 04:18:45;;;;;;;59.37;3.80;;;;;;;;;;5054626;28;20452;-71
2022/10/06 04:21:13;;;;;;;60.13;4.30;;;;;;;;;;5054552;28;20932;-70
2022/10/06 04:23:40;;;;;;;59.20;3.67;;;;;;;;;;5054597;28;20491;-70
2022/10/06 04:26:09;;;;;;;63.10;4.30;;;;;;;;;;5054548;28;20488;-70
2022/10/06 04:28:37;;;;;;;59.57;4.00;;;;;;;;;;5053445;28;20448;-70
2022/10/06 04:31:05;;;;;;;59.87;3.57;;;;;;;;;;5054535;28;20456;-70
2022/10/06 04:33:34;;;;;;;59.97;3.60;;;;;;;;;;5054419;28;20478;-70
2022/10/06 04:36:01;;;;;;;62.57;3.63;;;;;;;;;;5054362;28;20937;-70
2022/10/06 04:38:29;;;;;;;59.10;3.67;;;;;;;;;;5053394;28;20577;-68
2022/10/06 04:40:56;;;;;;;58.70;3.50;;;;;;;;;;5053906;28;20452;-68
2022/10/06 04:43:23;;;;;;;59.80;3.60;;;;;;;;;;5053973;28;20959;-68
2022/10/06 04:45:57;;;;;;;63.43;3.50;;;;;;;;;;5054104;28;20524;-68
2022/10/06 04:48:24;;;;;;;59.47;3.60;;;;;;;;;;5054038;28;20467;-68
2022/10/06 04:50:56;;;;;;;59.13;3.30;;;;;;;;;;5053264;28;20974;-70
2022/10/06 04:53:23;;;;;;;59.07;3.53;;;;;;;;;;5053934;28;20455;-70
2022/10/06 04:55:58;;;;;;;58.07;2.80;;;;;;;;;;5053726;28;20456;-70
2022/10/06 04:58:25;;;;;;;61.30;3.33;;;;;;;;;;5052776;28;20448;-70
2022/10/06 05:00:53;;;;;;;58.70;3.77;;;;;;;;;;5053383;28;20448;-70
2022/10/06 05:03:20;;;;;;;58.87;3.43;;;;;;;;;;5053478;28;20448;-70
2022/10/06 05:05:47;;;;;;;60.60;3.77;;;;;;;;;;5053676;28;20480;-70
2022/10/06 05:08:15;;;;;;;59.37;3.30;;;;;;;;;;5053398;28;20444;-70
2022/10/06 05:10:43;;;;;;;58.77;3.13;;;;;;;;;;5053830;28;20455;-70
2022/10/06 05:13:11;;;;;;;59.60;3.53;;;;;;;;;;5052922;28;20452;-70
2022/10/06 05:15:39;;;;;;;58.30;3.20;;;;;;;;;;5053545;28;20488;-70
2022/10/06 05:18:06;;;;;;;58.70;3.50;;;;;;;;;;5053400;28;20456;-70
2022/10/06 05:20:33;;;;;;;58.80;3.10;;;;;;;;;;5053133;28;20480;-70
2022/10/06 05:23:00;;;;;;;58.47;3.57;;;;;;;;;;5053645;28;20460;-70
2022/10/06 05:25:29;;;;;;;60.47;4.30;;;;;;;;;;5052597;28;20468;-70
2022/10/06 05:27:56;;;;;;;58.63;3.60;;;;;;;;;;5053407;28;20459;-70
2022/10/06 05:30:23;;;;;;;59.17;3.73;;;;;;;;;;5052661;28;20444;-70
2022/10/06 05:32:51;;;;;;;59.33;3.47;;;;;;;;;;5053373;28;20444;-70
2022/10/06 05:35:20;;;;;;;58.60;3.40;;;;;;;;;;5052451;28;20567;-70
2022/10/06 05:37:47;;;;;;;59.20;3.83;;;;;;;;;;5053095;28;20455;-70
2022/10/06 05:40:14;;;;;;;58.80;3.43;;;;;;;;;;5052933;28;20451;-70
2022/10/06 05:42:42;;;;;;;59.07;3.30;;;;;;;;;;5053151;28;20536;-70
2022/10/06 05:45:10;;;;;;;58.23;2.83;;;;;;;;;;5052819;28;21064;-70
2022/10/06 05:47:37;;;;;;;59.30;3.67;;;;;;;;;;5051964;28;20498;-70
2022/10/06 05:50:04;;;;;;;58.73;3.10;;;;;;;;;;5052663;28;20446;-70
2022/10/06 05:52:31;;;;;;;58.90;3.20;;;;;;;;;;5052953;28;20448;-70
2022/10/06 05:54:58;;;;;;;60.17;4.90;;;;;;;;;;5052659;28;20479;-70
2022/10/06 05:57:25;;;;;;;58.70;3.30;;;;;;;;;;5052777;28;20444;-70
2022/10/06 05:59:54;;;;;;;60.10;3.30;;;;;;;;;;5051623;28;20485;-70
2022/10/06 06:02:21;;;;;;;59.27;3.50;;;;;;;;;;5052479;28;21050;-70
2022/10/06 06:04:48;;;;;;;58.70;3.20;;;;;;;;;;5052746;28;20471;-70
2022/10/06 06:07:15;;;;;;;59.17;4.03;;;;;;;;;;5052451;28;20664;-70
2022/10/06 06:09:42;;;;;;;58.50;3.13;;;;;;;;;;5051685;28;20448;-69
2022/10/06 06:12:09;;;;;;;58.80;3.30;;;;;;;;;;5052050;28;20443;-69
2022/10/06 06:17:22;;;;;;;60.00;3.50;;;;;;;;;;5052467;28;20504;-70
2022/10/06 06:19:49;;;;;;;58.67;3.33;;;;;;;;;;5052156;28;20459;-70
2022/10/06 06:22:17;;;;;;;61.00;3.80;;;;;;;;;;5051416;28;20959;-70
2022/10/06 06:24:44;;;;;;;61.70;4.27;;;;;;;;;;5052252;28;20464;-70
2022/10/06 06:27:11;;;;;;;59.77;4.17;;;;;;;;;;5051820;28;20480;-70
2022/10/06 06:29:38;;;;;;;58.60;3.17;;;;;;;;;;5051678;28;20449;-70
2022/10/06 06:32:07;;;;;;;58.97;3.40;;;;;;;;;;5052038;28;20452;-70
2022/10/06 06:34:35;;;;;;;59.30;3.30;;;;;;;;;;5051236;28;20891;-70
2022/10/06 06:37:02;;;;;;;59.60;2.93;;;;;;;;;;5051901;28;20453;-69
2022/10/06 06:39:29;;;;;;;60.60;3.90;;;;;;;;;;5051663;28;20456;-70
2022/10/06 06:41:57;;;;;;;59.30;3.50;;;;;;;;;;5051802;28;20453;-71
2022/10/06 06:44:25;;;;;;;59.30;3.20;;;;;;;;;;5051496;28;20448;-71
2022/10/06 06:46:52;;;;;;;61.20;3.50;;;;;;;;;;5051753;28;20525;-71
2022/10/06 06:49:19;;;;;;;58.93;3.30;;;;;;;;;;5051467;28;20462;-70
2022/10/06 06:51:49;;;;;;;60.97;4.03;;;;;;;;;;5051783;28;20449;-71
2022/10/06 06:54:17;;;;;;;59.50;4.20;;;;;;;;;;5051756;28;20460;-71
2022/10/06 06:56:45;;;;;;;60.00;3.73;;;;;;;;;;5051678;28;20474;-71
2022/10/06 06:59:13;;;;;;;59.03;3.30;;;;;;;;;;5051371;28;20458;-71
2022/10/06 07:01:44;;;;;;;67.20;3.80;;;;;;;;;;5051076;28;20453;-71
2022/10/06 07:04:11;;;;;;;59.47;4.17;;;;;;;;;;5051700;28;20512;-71
2022/10/06 07:06:39;;;;;;;58.97;3.53;;;;;;;;;;5051537;28;20490;-71
2022/10/06 07:09:09;;;;;;;60.47;4.30;;;;;;;;;;5051017;28;20825;-71
2022/10/06 07:11:36;;;;;;;59.80;4.17;;;;;;;;;;5051472;28;20452;-71
2022/10/06 07:14:04;;;;;;;59.77;4.17;;;;;;;;;;5051714;28;20455;-71
2022/10/06 07:25:10;;;;;;;59.77;3.93;;;;;;;;;;5055649;28;20569;-71
2022/10/06 07:27:38;;;;;;;58.80;3.23;;;;;;;;;;5055397;28;20565;-71
2022/10/06 07:30:05;;;;;;;58.50;3.67;;;;;;;;;;5055108;28;21002;-71
2022/10/06 07:32:33;;;;;;;61.07;4.13;;;;;;;;;;5054741;28;20454;-71
2022/10/06 07:35:03;;;;;;;60.07;4.00;;;;;;;;;;5055200;28;20494;-71
2022/10/06 07:37:30;;;;;;;66.50;4.80;;;;;;;;;;5055299;28;20439;-71
2022/10/06 07:39:58;;;;;;;60.10;4.50;;;;;;;;;;5055014;28;20455;-71
2022/10/06 07:42:25;;;;;;;60.27;4.00;;;;;;;;;;5055075;28;20451;-71
2022/10/06 07:47:33;;;;;;;59.40;3.90;;;;;;;;;;5055048;28;20510;-71
2022/10/06 07:50:00;;;;;;;59.53;3.97;;;;;;;;;;5054915;28;20822;-71
2022/10/06 07:52:28;;;;;;;59.03;3.50;;;;;;;;;;5055156;28;20488;-71
2022/10/06 07:54:57;;;;;;;60.40;4.70;;;;;;;;;;5054199;28;20480;-71
2022/10/06 07:57:33;;;;;;;62.80;3.80;;;;;;;;;;5055080;28;20453;-71
2022/10/06 08:00:00;;;;;;;58.37;3.30;;;;;;;;;;5054773;28;20451;-71
2022/10/06 08:02:27;;;;;;;59.10;3.37;;;;;;;;;;5055024;28;20527;-71
2022/10/06 08:04:55;;;;;;;58.40;3.30;;;;;;;;;;5054973;28;20649;-71
2022/10/06 08:07:22;;;;;;;58.50;3.27;;;;;;;;;;5054551;28;20483;-71
2022/10/06 08:09:49;;;;;;;59.07;3.27;;;;;;;;;;5054383;28;20956;-71
2022/10/06 08:12:36;;;;;;;59.30;3.60;;;;;;;;;;5054872;28;20447;-71
2022/10/06 08:15:05;;;;;;;59.00;3.50;;;;;;;;;;5054683;28;20490;-71
2022/10/06 08:17:32;;;;;;;58.07;3.23;;;;;;;;;;5053767;28;20444;-71
2022/10/06 08:20:00;;;;;;;58.00;3.03;;;;;;;;;;5054132;28;20452;-71
2022/10/06 08:22:28;;;;;;;64.80;3.33;;;;;;;;;;5054726;28;20444;-71
2022/10/06 08:24:56;;;;;;;60.20;3.20;;;;;;;;;;5054533;28;20468;-71
2022/10/06 08:27:23;;;;;;;59.50;3.40;;;;;;;;;;5054344;28;20800;-71
2022/10/06 08:29:50;;;;;;;60.53;4.00;;;;;;;;;;5053536;28;20459;-71
2022/10/06 08:32:19;;;;;;;65.17;3.80;;;;;;;;;;5054090;28;20819;-71
2022/10/06 08:34:47;;;;;;;58.90;3.27;;;;;;;;;;5054548;28;20483;-71
2022/10/06 08:37:14;;;;;;;58.17;3.27;;;;;;;;;;5054388;28;20474;-71
2022/10/06 08:39:42;;;;;;;59.13;4.00;;;;;;;;;;5053428;28;20455;-71
2022/10/06 08:42:11;;;;;;;58.70;3.63;;;;;;;;;;5054161;28;20452;-71
2022/10/06 08:44:41;;;;;;;60.10;3.93;;;;;;;;;;5054085;28;20444;-71
2022/10/06 08:47:13;;;;;;;58.43;3.00;;;;;;;;;;5053927;28;20519;-71
2022/10/06 08:49:44;;;;;;;59.20;3.20;;;;;;;;;;5053937;28;20454;-71
2022/10/06 08:52:19;;;;;;;58.47;3.00;;;;;;;;;;5053341;28;20459;-71
2022/10/06 08:54:49;;;;;;;58.50;3.20;;;;;;;;;;5053897;28;20467;-71
2022/10/06 08:57:20;;;;;;;58.10;2.80;;;;;;;;;;5053863;28;20444;-71
2022/10/06 08:59:48;;;;;;;57.60;2.87;;;;;;;;;;5053763;28;20933;-71
2022/10/06 09:02:21;;;;;;;58.60;3.27;;;;;;;;;;5053658;28;20455;-71
2022/10/06 09:04:50;;;;;;;57.90;2.40;;;;;;;;;;5053556;28;21028;-71
2022/10/06 09:07:22;;;;;;;58.37;3.10;;;;;;;;;;5053583;28;21019;-71
2022/10/06 09:09:57;;;;;;;58.03;2.80;;;;;;;;;;5053258;28;20455;-71
2022/10/06 09:12:30;;;;;;;60.47;3.00;;;;;;;;;;5053844;28;20443;-71
2022/10/06 09:15:03;;;;;;;57.90;2.67;;;;;;;;;;5053447;28;20486;-71
2022/10/06 09:17:32;;;;;;;59.07;2.90;;;;;;;;;;5053616;28;20452;-71
2022/10/06 09:20:03;;;;;;;58.70;3.07;;;;;;;;;;5053321;28;20455;-71
2022/10/06 09:22:31;;;;;;;58.30;3.03;;;;;;;;;;5053367;28;20822;-71
2022/10/06 09:25:01;;;;;;;58.20;2.50;;;;;;;;;;5052707;28;20479;-71
2022/10/06 09:27:31;;;;;;;58.20;2.70;;;;;;;;;;5053363;28;20490;-71
2022/10/06 09:29:58;;;;;;;58.20;2.67;;;;;;;;;;5053040;28;20892;-71
2022/10/06 09:32:26;;;;;;;62.60;2.70;;;;;;;;;;5053209;28;20944;-71
2022/10/06 09:34:55;;;;;;;58.10;2.50;;;;;;;;;;5052977;28;20950;-71
2022/10/06 09:37:23;;;;;;;60.37;2.70;;;;;;;;;;5052551;28;20449;-71
2022/10/06 09:39:52;;;;;;;57.90;2.80;;;;;;;;;;5052948;28;20444;-71
2022/10/06 09:42:20;;;;;;;57.37;2.50;;;;;;;;;;5053032;28;20458;-71
2022/10/06 09:44:54;;;;;;;60.00;2.43;;;;;;;;;;5052258;28;20477;-71
2022/10/06 09:47:39;;;;;;;58.00;2.87;;;;;;;;;;5052451;28;20484;-71
2022/10/06 09:50:13;;;;;;;57.73;2.40;;;;;;;;;;5052705;28;20424;-70
2022/10/06 09:52:42;;;;;;;57.73;2.57;;;;;;;;;;5053060;28;20509;-70
2022/10/06 09:55:11;;;;;;;57.90;2.50;;;;;;;;;;5052793;28;20471;-70
2022/10/06 09:57:38;;;;;;;57.53;2.20;;;;;;;;;;5052790;28;20445;-70
2022/10/06 10:00:26;;;;;;;58.07;2.50;;;;;;;;;;5048852;28;20460;-71
2022/10/06 10:02:56;;;;;;;58.00;2.30;;;;;;;;;;5052720;28;20443;-69
2022/10/06 10:05:24;;;;;;;58.10;2.33;;;;;;;;;;5052389;28;20494;-69
2022/10/06 10:08:03;;;;;;;58.03;2.40;;;;;;;;;;5052073;28;20484;-69
2022/10/06 10:10:30;;;;;;;59.87;2.33;;;;;;;;;;5051478;28;20464;-70
2022/10/06 10:12:58;;;;;;;58.07;2.50;;;;;;;;;;5052000;28;20462;-70
2022/10/06 10:15:28;;;;;;;58.23;2.90;;;;;;;;;;5052289;28;20472;-70
2022/10/06 10:17:56;;;;;;;58.00;2.80;;;;;;;;;;5052160;28;20448;-70
2022/10/06 10:20:27;;;;;;;58.30;2.60;;;;;;;;;;5051601;28;20460;-69
2022/10/06 10:22:54;;;;;;;58.00;2.43;;;;;;;;;;5051277;28;20448;-69
2022/10/06 10:25:34;;;;;;;57.60;2.50;;;;;;;;;;5049743;28;20844;-70
2022/10/06 10:28:05;;;;;;;57.80;2.60;;;;;;;;;;5052029;28;20491;-69
2022/10/06 10:30:34;;;;;;;59.60;2.40;;;;;;;;;;5051799;28;20824;-68
2022/10/06 10:33:02;;;;;;;57.63;2.43;;;;;;;;;;5051551;28;20892;-68
2022/10/06 10:35:31;;;;;;;58.00;2.40;;;;;;;;;;5051068;28;20476;-70
2022/10/06 10:38:01;;;;;;;58.57;2.63;;;;;;;;;;5051907;28;20440;-69
2022/10/06 10:40:31;;;;;;;58.10;2.40;;;;;;;;;;5051668;28;20506;-70
2022/10/06 10:43:02;;;;;;;57.37;2.60;;;;;;;;;;5051811;28;20911;-70
2022/10/06 10:45:32;;;;;;;58.87;2.43;;;;;;;;;;5050891;28;20483;-70
2022/10/06 10:48:00;;;;;;;57.77;2.27;;;;;;;;;;5051912;28;20566;-70
2022/10/06 10:50:29;;;;;;;57.73;2.27;;;;;;;;;;5051442;28;20448;-68
2022/10/06 10:52:58;;;;;;;57.87;2.20;;;;;;;;;;5051722;28;20808;-68
2022/10/06 10:55:28;;;;;;;58.30;3.13;;;;;;;;;;5051221;28;20472;-70
2022/10/06 10:57:59;;;;;;;57.67;2.17;;;;;;;;;;5048303;28;20452;-67
2022/10/06 11:00:27;;;;;;;57.17;1.83;;;;;;;;;;5051300;28;20494;-68
2022/10/06 11:02:57;;;;;;;58.47;2.00;;;;;;;;;;5051781;28;20444;-68
2022/10/06 11:05:32;;;;;;;58.47;2.00;;;;;;;;;;5051310;28;20475;-68
2022/10/06 11:08:02;;;;;;;57.10;1.90;;;;;;;;;;5050808;28;20570;-68
2022/10/06 11:10:31;;;;;;;57.53;2.00;;;;;;;;;;5050866;28;20451;-68
2022/10/06 11:13:09;;;;;;;57.60;1.90;;;;;;;;;;5051504;28;20444;-68
2022/10/06 11:15:43;;;;;;;59.93;2.77;;;;;;;;;;5051302;28;20976;-68
2022/10/06 11:18:16;;;;;;;59.23;2.30;;;;;;;;;;5051396;28;20818;-68
2022/10/06 11:20:45;;;;;;;57.60;1.93;;;;;;;;;;5050293;28;20463;-68
2022/10/06 11:23:25;;;;;;;57.47;1.93;;;;;;;;;;5050738;28;20448;-68
2022/10/06 11:25:55;;;;;;;57.23;1.97;;;;;;;;;;5050619;28;20994;-68
2022/10/06 11:28:26;;;;;;;57.60;1.90;;;;;;;;;;5049562;28;20484;-68
2022/10/06 11:30:58;;;;;;;57.93;1.90;;;;;;;;;;5050655;28;20459;-68
2022/10/06 11:33:28;;;;;;;56.87;1.83;;;;;;;;;;5050476;28;20971;-67
2022/10/06 11:35:56;;;;;;;58.10;2.00;;;;;;;;;;5050988;28;20484;-68
2022/10/06 11:38:25;;;;;;;58.43;2.20;;;;;;;;;;5050775;28;20448;-68
2022/10/06 11:41:12;;;;;;;57.47;2.00;;;;;;;;;;5049722;28;20455;-69
2022/10/06 11:43:45;;;;;;;57.80;2.37;;;;;;;;;;5050036;28;20991;-70
2022/10/06 11:46:21;;;;;;;57.20;2.30;;;;;;;;;;5050896;28;20466;-70
2022/10/06 11:48:48;;;;;;;59.13;3.10;;;;;;;;;;5050676;28;20493;-69
2022/10/06 11:51:33;;;;;;;57.90;2.47;;;;;;;;;;5051210;28;20834;-69
2022/10/06 11:54:00;;;;;;;58.70;2.50;;;;;;;;;;5050664;28;20523;-69
2022/10/06 11:56:45;;;;;;;66.83;2.90;;;;;;;;;;5050373;28;20464;-69
2022/10/06 11:59:27;;;;;;;57.90;2.17;;;;;;;;;;5050794;28;20444;-67
2022/10/06 12:01:57;;;;;;;57.73;2.53;;;;;;;;;;5049601;28;20971;-67
2022/10/06 12:04:26;;;;;;;57.80;2.37;;;;;;;;;;5050815;28;20451;-67
2022/10/06 12:06:54;;;;;;;57.87;2.40;;;;;;;;;;5050690;28;20454;-67
2022/10/06 12:09:29;;;;;;;63.13;2.83;;;;;;;;;;5053300;28;20484;-67
2022/10/06 12:11:57;;;;;;;57.87;2.67;;;;;;;;;;5054618;28;20542;-67
2022/10/06 12:14:31;;;;;;;57.73;2.20;;;;;;;;;;5054589;28;20450;-67
2022/10/06 12:17:04;;;;;;;58.07;2.53;;;;;;;;;;5054379;28;20444;-69
2022/10/06 12:19:33;;;;;;;57.17;2.50;;;;;;;;;;5053728;28;20441;-69
2022/10/06 12:22:03;;;;;;;60.53;2.37;;;;;;;;;;5054055;28;20447;-69
2022/10/06 12:24:33;;;;;;;57.73;2.40;;;;;;;;;;5054190;28;20460;-69
2022/10/06 12:27:11;;;;;;;58.17;2.20;;;;;;;;;;5054410;28;20452;-69
2022/10/06 12:29:44;;;;;;;57.80;2.40;;;;;;;;;;5054306;28;20498;-69
2022/10/06 12:32:18;;;;;;;59.67;2.60;;;;;;;;;;5051026;28;20471;-69
2022/10/06 12:34:55;;;;;;;58.60;2.77;;;;;;;;;;5054030;28;20480;-69
2022/10/06 12:37:40;;;;;;;58.97;2.30;;;;;;;;;;5054182;28;20456;-69
2022/10/06 12:40:26;;;;;;;57.97;2.30;;;;;;;;;;5053667;28;20448;-69
2022/10/06 12:42:53;;;;;;;58.30;2.50;;;;;;;;;;5053643;28;20459;-69
2022/10/06 12:45:23;;;;;;;60.93;2.53;;;;;;;;;;5053629;28;21034;-69
2022/10/06 12:47:51;;;;;;;58.00;2.47;;;;;;;;;;5053837;28;20940;-69
2022/10/06 12:50:24;;;;;;;59.97;2.83;;;;;;;;;;5053480;28;20459;-69
2022/10/06 12:52:52;;;;;;;59.03;3.73;;;;;;;;;;5053681;28;20480;-69
2022/10/06 12:55:35;;;;;;;57.77;2.30;;;;;;;;;;5052931;28;20474;-69
2022/10/06 12:58:02;;;;;;;58.00;2.37;;;;;;;;;;5053819;28;20456;-69
2022/10/06 13:00:33;;;;;;;59.20;2.50;;;;;;;;;;5053397;28;20452;-69
2022/10/06 13:03:05;;;;;;;57.90;2.27;;;;;;;;;;5050612;28;20453;-69
2022/10/06 13:05:32;;;;;;;57.87;2.30;;;;;;;;;;5053452;28;20625;-69
2022/10/06 13:08:00;;;;;;;60.20;2.70;;;;;;;;;;5052741;28;20463;-69
2022/10/06 13:10:29;;;;;;;58.07;2.10;;;;;;;;;;5052552;28;20448;-69
2022/10/06 13:12:57;;;;;;;58.60;2.50;;;;;;;;;;5052906;28;20517;-69
2022/10/06 13:15:26;;;;;;;59.40;2.33;;;;;;;;;;5053276;28;20996;-69
2022/10/06 13:17:54;;;;;;;57.97;2.40;;;;;;;;;;5052395;28;20551;-69
2022/10/06 13:20:36;;;;;;;59.27;2.40;;;;;;;;;;5052210;28;20448;-69
2022/10/06 13:23:06;;;;;;;57.77;2.67;;;;;;;;;;5051168;28;20522;-67
2022/10/06 13:25:35;;;;;;;57.80;2.30;;;;;;;;;;5053501;28;20992;-69
2022/10/06 13:28:03;;;;;;;58.37;2.47;;;;;;;;;;5053070;28;20464;-69
2022/10/06 13:30:30;;;;;;;58.87;2.40;;;;;;;;;;5051905;28;20452;-69
2022/10/06 13:32:58;;;;;;;57.80;2.57;;;;;;;;;;5053098;28;20494;-69
2022/10/06 13:35:26;;;;;;;58.20;2.40;;;;;;;;;;5050491;28;20476;-69
2022/10/06 13:37:54;;;;;;;57.63;2.63;;;;;;;;;;5052921;28;20458;-70
2022/10/06 13:40:32;;;;;;;61.90;2.43;;;;;;;;;;5052023;28;20833;-69
2022/10/06 13:42:59;;;;;;;57.70;2.63;;;;;;;;;;5052520;28;20462;-69
2022/10/06 13:45:27;;;;;;;58.07;2.30;;;;;;;;;;5052826;28;20468;-70
2022/10/06 13:48:05;;;;;;;58.50;2.30;;;;;;;;;;5052955;28;20449;-69
2022/10/06 13:50:32;;;;;;;57.67;2.17;;;;;;;;;;5052339;28;20456;-69
2022/10/06 13:53:00;;;;;;;57.77;2.20;;;;;;;;;;5051891;28;20452;-69
2022/10/06 13:55:28;;;;;;;59.00;2.90;;;;;;;;;;5052613;28;20875;-69
2022/10/06 13:58:08;;;;;;;57.73;2.10;;;;;;;;;;5052751;28;20626;-69
2022/10/06 14:00:47;;;;;;;57.90;2.40;;;;;;;;;;5052285;28;20478;-69
2022/10/06 14:03:20;;;;;;;58.33;2.40;;;;;;;;;;5052137;28;20466;-70
2022/10/06 14:05:47;;;;;;;57.50;2.30;;;;;;;;;;5048824;28;20487;-69
2022/10/06 14:08:18;;;;;;;58.97;2.97;;;;;;;;;;5052398;28;20767;-69
2022/10/06 14:10:47;;;;;;;58.20;2.70;;;;;;;;;;5052403;28;20460;-69
2022/10/06 14:13:17;;;;;;;57.80;2.20;;;;;;;;;;5052419;28;20451;-70
2022/10/06 14:15:49;;;;;;;58.97;2.13;;;;;;;;;;5051250;28;20472;-70
2022/10/06 14:18:19;;;;;;;57.70;2.40;;;;;;;;;;5051832;28;20452;-70
2022/10/06 14:20:46;;;;;;;57.37;2.00;;;;;;;;;;5052067;28;20448;-70
2022/10/06 14:23:32;;;;;;;59.20;2.20;;;;;;;;;;5052079;28;20451;-70
2022/10/06 14:25:59;;;;;;;57.80;2.30;;;;;;;;;;5051841;28;20468;-70
2022/10/06 14:28:28;;;;;;;57.47;2.10;;;;;;;;;;5051709;28;20444;-70
2022/10/06 14:30:56;;;;;;;57.57;2.20;;;;;;;;;;5051428;28;20448;-70
2022/10/06 14:33:23;;;;;;;57.37;2.10;;;;;;;;;;5052038;28;20460;-70
2022/10/06 14:35:51;;;;;;;57.60;2.00;;;;;;;;;;5051404;28;20467;-70
2022/10/06 14:38:18;;;;;;;57.47;2.30;;;;;;;;;;5049340;28;20464;-69
2022/10/06 14:40:45;;;;;;;57.37;2.10;;;;;;;;;;5051572;28;20453;-70
2022/10/06 14:43:13;;;;;;;57.40;1.97;;;;;;;;;;5051564;28;20452;-69
2022/10/06 14:45:42;;;;;;;57.37;2.00;;;;;;;;;;5051509;28;20972;-69
2022/10/06 14:48:09;;;;;;;58.27;2.00;;;;;;;;;;5050785;28;20478;-70
2022/10/06 14:50:37;;;;;;;58.60;2.30;;;;;;;;;;5051472;28;20494;-69
2022/10/06 14:53:04;;;;;;;57.70;2.40;;;;;;;;;;5051638;28;20531;-70
2022/10/06 14:55:31;;;;;;;58.37;2.07;;;;;;;;;;5051439;28;20472;-70